Time;durP1;ratioP1;P1;durP2;ratioP2;P2;SDS_P1;SDS_P2;PMS_P1;PMS_P2;Temp;Humidity;BMP_temperature;BMP_pressure;BME280_temperature;BME280_humidity;BME280_pressure;Samples;Min_cycle;Max_cycle;Signal;HPM_P1;HPM_P2
2024/01/19 00:01:26;;;;;;;4.72;0.73;;;0.30;99.90;;;;;;5068335;28;20040;-74
2024/01/19 00:03:52;;;;;;;2.13;0.50;;;0.30;99.90;;;;;;5071622;28;20040;-74
2024/01/19 00:06:17;;;;;;;3.75;0.70;;;0.40;99.90;;;;;;5073225;28;20045;-75
2024/01/19 00:08:43;;;;;;;5.55;0.70;;;0.20;99.90;;;;;;5065919;28;20484;-73
2024/01/19 00:11:15;;;;;;;4.13;0.73;;;1.20;99.90;;;;;;5053039;28;20071;-74
2024/01/19 00:13:42;;;;;;;1.58;0.35;;;0.20;99.90;;;;;;5052500;28;20045;-73
2024/01/19 00:16:08;;;;;;;6.43;0.65;;;0.30;99.90;;;;;;5052015;28;20082;-73
2024/01/19 00:18:34;;;;;;;2.17;0.50;;;0.20;99.90;;;;;;5054632;28;20045;-73
2024/01/19 00:21:00;;;;;;;0.90;0.30;;;0.20;99.90;;;;;;5067324;28;20388;-74
2024/01/19 00:23:26;;;;;;;2.97;0.70;;;0.10;99.90;;;;;;5056445;28;20063;-73
2024/01/19 00:25:51;;;;;;;1.20;0.30;;;0.20;99.90;;;;;;5052374;28;20045;-73
2024/01/19 00:28:17;;;;;;;3.22;0.50;;;0.20;99.90;;;;;;5052086;28;20059;-73
2024/01/19 00:30:42;;;;;;;2.22;0.60;;;0.30;99.90;;;;;;5051257;28;20044;-73
2024/01/19 00:33:08;;;;;;;2.75;0.40;;;0.20;99.90;;;;;;5059203;28;20385;-75
2024/01/19 00:35:34;;;;;;;3.92;0.52;;;0.30;99.90;;;;;;5069511;28;20490;-74
2024/01/19 00:37:59;;;;;;;4.85;0.50;;;0.30;99.90;;;;;;5070713;28;20439;-74
2024/01/19 00:40:25;;;;;;;2.30;0.40;;;0.40;99.90;;;;;;5071571;28;20454;-74
2024/01/19 00:42:51;;;;;;;2.55;0.47;;;0.40;99.90;;;;;;5062342;28;20116;-74
2024/01/19 00:45:16;;;;;;;4.28;0.55;;;0.40;99.90;;;;;;5033738;28;20488;-74
2024/01/19 00:47:42;;;;;;;5.90;0.50;;;0.40;99.90;;;;;;5052781;28;20048;-74
2024/01/19 00:50:09;;;;;;;3.33;0.63;;;0.40;99.90;;;;;;5057679;28;20040;-75
2024/01/19 00:52:35;;;;;;;3.10;0.40;;;0.40;99.90;;;;;;5057464;28;20041;-73
2024/01/19 00:55:01;;;;;;;5.07;0.60;;;0.40;99.90;;;;;;5051013;28;20400;-78
2024/01/19 00:57:26;;;;;;;3.20;0.50;;;1.30;99.90;;;;;;5069733;28;20048;-74
2024/01/19 00:59:54;;;;;;;2.60;0.50;;;0.40;99.90;;;;;;5069521;28;20349;-74
2024/01/19 01:02:20;;;;;;;3.58;0.68;;;0.40;99.90;;;;;;5062513;28;20044;-74
2024/01/19 01:04:46;;;;;;;5.07;0.60;;;0.60;99.90;;;;;;5061668;28;20471;-74
2024/01/19 01:07:12;;;;;;;2.20;0.65;;;0.40;99.90;;;;;;5067608;28;20048;-74
2024/01/19 01:09:38;;;;;;;2.00;0.50;;;0.40;99.90;;;;;;5063470;28;20112;-74
2024/01/19 01:12:04;;;;;;;3.33;0.57;;;0.40;99.90;;;;;;5064287;28;20432;-74
2024/01/19 01:14:30;;;;;;;3.60;0.70;;;0.40;99.90;;;;;;5066526;28;20055;-74
2024/01/19 01:16:56;;;;;;;2.33;0.50;;;0.90;99.90;;;;;;5053378;28;20385;-73
2024/01/19 01:19:21;;;;;;;2.42;0.60;;;0.40;99.90;;;;;;5067107;28;20479;-73
2024/01/19 01:21:47;;;;;;;2.65;0.70;;;0.50;99.90;;;;;;5069495;28;20461;-74
2024/01/19 01:24:13;;;;;;;4.18;0.80;;;0.30;99.90;;;;;;5069972;28;20048;-77
2024/01/19 01:26:38;;;;;;;3.17;0.55;;;0.30;99.90;;;;;;5051079;28;20090;-74
2024/01/19 01:29:04;;;;;;;2.55;0.65;;;0.30;99.90;;;;;;5056245;28;20108;-74
2024/01/19 01:31:30;;;;;;;1.48;0.40;;;1.40;99.90;;;;;;5052190;28;20037;-74
2024/01/19 01:33:55;;;;;;;1.73;0.45;;;0.30;99.90;;;;;;5050700;28;20048;-74
2024/01/19 01:36:21;;;;;;;2.72;0.45;;;1.40;99.90;;;;;;5051276;28;20045;-74
2024/01/19 01:38:47;;;;;;;4.65;0.70;;;0.20;99.90;;;;;;5060031;28;20044;-74
2024/01/19 01:41:12;;;;;;;3.17;0.63;;;0.10;99.90;;;;;;5054926;28;20084;-76
2024/01/19 01:43:38;;;;;;;2.75;0.50;;;0.50;99.90;;;;;;5073161;28;20123;-74
2024/01/19 01:46:04;;;;;;;2.97;0.60;;;0.00;99.90;;;;;;5074604;28;20452;-74
2024/01/19 01:48:29;;;;;;;4.10;0.88;;;0.00;99.90;;;;;;5068610;28;20040;-74
2024/01/19 01:50:56;;;;;;;4.03;0.70;;;0.00;99.90;;;;;;5074584;28;20040;-73
2024/01/19 01:53:23;;;;;;;1.33;0.50;;;-0.10;99.90;;;;;;5073894;28;20052;-74
2024/01/19 01:55:49;;;;;;;2.67;0.80;;;-0.10;99.90;;;;;;5058255;28;20076;-75
2024/01/19 01:58:16;;;;;;;2.78;0.93;;;-0.10;99.90;;;;;;5067579;28;20071;-74
2024/01/19 02:00:42;;;;;;;3.15;0.65;;;-0.10;99.90;;;;;;5062211;28;20044;-73
2024/01/19 02:03:09;;;;;;;3.13;0.60;;;-0.20;99.90;;;;;;5057389;28;20048;-75
2024/01/19 02:05:34;;;;;;;6.65;0.85;;;-0.20;99.90;;;;;;5060230;28;20095;-74
2024/01/19 02:08:00;;;;;;;3.15;0.68;;;-0.10;99.90;;;;;;5067135;28;20033;-74
2024/01/19 02:10:26;;;;;;;5.03;0.73;;;-0.20;99.90;;;;;;5067101;28;20088;-73
2024/01/19 02:12:53;;;;;;;6.45;0.88;;;-0.20;99.90;;;;;;5057384;28;20045;-74
2024/01/19 02:15:20;;;;;;;2.85;0.77;;;-0.30;99.90;;;;;;5072102;28;20516;-74
2024/01/19 02:17:46;;;;;;;6.80;0.80;;;-0.30;99.90;;;;;;5056339;28;20079;-74
2024/01/19 02:20:12;;;;;;;4.22;0.98;;;0.10;99.90;;;;;;5060148;28;20041;-73
2024/01/19 02:22:39;;;;;;;3.55;0.73;;;0.00;99.90;;;;;;5061619;28;20082;-77
2024/01/19 02:25:05;;;;;;;10.40;1.13;;;0.30;99.90;;;;;;5067292;28;20071;-73
2024/01/19 02:27:32;;;;;;;2.50;0.70;;;-0.30;99.90;;;;;;5059497;28;20067;-74
2024/01/19 02:29:58;;;;;;;3.70;0.60;;;-0.30;99.90;;;;;;5062783;28;20067;-74
2024/01/19 02:32:24;;;;;;;5.40;0.93;;;-0.20;99.90;;;;;;5067854;28;20084;-74
2024/01/19 02:34:49;;;;;;;10.13;1.13;;;-0.20;99.90;;;;;;5064098;28;20452;-74
2024/01/19 02:37:15;;;;;;;4.30;0.70;;;-0.20;99.90;;;;;;5054216;28;20055;-74
2024/01/19 02:39:41;;;;;;;7.38;0.82;;;-0.10;99.90;;;;;;5053755;28;20155;-73
2024/01/19 02:42:08;;;;;;;5.15;0.75;;;-0.10;99.90;;;;;;5053875;28;20051;-74
2024/01/19 02:44:33;;;;;;;4.80;0.70;;;0.40;99.90;;;;;;5068597;28;20067;-76
2024/01/19 02:46:59;;;;;;;5.28;0.80;;;0.00;99.90;;;;;;5057557;28;20049;-74
2024/01/19 02:49:25;;;;;;;4.68;0.82;;;0.00;99.90;;;;;;5070044;28;20125;-75
2024/01/19 02:51:50;;;;;;;7.72;1.25;;;0.10;99.90;;;;;;5055165;28;20036;-74
2024/01/19 02:54:16;;;;;;;5.95;1.55;;;0.10;99.90;;;;;;5069055;28;20099;-74
2024/01/19 02:56:42;;;;;;;6.47;1.05;;;0.10;99.90;;;;;;5073302;28;20024;-74
2024/01/19 02:59:08;;;;;;;6.07;1.00;;;0.10;99.90;;;;;;5067018;28;20048;-74
2024/01/19 03:01:34;;;;;;;5.45;1.00;;;0.10;99.90;;;;;;5053609;28;20049;-75
2024/01/19 03:03:59;;;;;;;5.60;0.95;;;0.10;99.90;;;;;;5067141;28;20052;-75
2024/01/19 03:06:25;;;;;;;8.27;0.88;;;0.00;99.90;;;;;;5066399;28;20397;-74
2024/01/19 03:08:51;;;;;;;2.33;0.60;;;0.00;99.90;;;;;;5053227;28;20041;-74
2024/01/19 03:11:17;;;;;;;7.30;0.85;;;1.00;99.90;;;;;;5063371;28;20127;-74
2024/01/19 03:13:42;;;;;;;6.03;0.82;;;-0.10;99.90;;;;;;5058889;28;20401;-74
2024/01/19 03:16:08;;;;;;;6.63;0.80;;;-0.20;99.90;;;;;;5053321;28;20053;-75
2024/01/19 03:18:34;;;;;;;5.85;1.30;;;-0.20;99.90;;;;;;5053141;28;20064;-77
2024/01/19 03:20:59;;;;;;;7.47;0.98;;;-0.20;99.90;;;;;;5068715;28;20048;-74
2024/01/19 03:23:25;;;;;;;5.40;0.95;;;-0.20;99.90;;;;;;5069761;28;20492;-75
2024/01/19 03:25:51;;;;;;;4.72;1.02;;;-0.20;99.90;;;;;;5068263;28;20072;-74
2024/01/19 03:28:17;;;;;;;5.18;0.82;;;-0.20;99.90;;;;;;5067403;28;20495;-74
2024/01/19 03:30:42;;;;;;;5.88;0.63;;;-0.20;99.90;;;;;;5072429;28;20400;-74
2024/01/19 03:33:08;;;;;;;8.90;0.90;;;-0.20;99.90;;;;;;5062567;28;20488;-74
2024/01/19 03:35:34;;;;;;;4.05;0.70;;;-0.20;99.90;;;;;;5058377;28;20049;-74
2024/01/19 03:38:00;;;;;;;3.60;0.60;;;-0.20;99.90;;;;;;5064229;28;20047;-74
2024/01/19 03:40:25;;;;;;;7.03;0.80;;;-0.20;99.90;;;;;;5055947;28;20482;-74
2024/01/19 03:42:51;;;;;;;4.95;0.80;;;-0.20;99.90;;;;;;5070480;28;20041;-75
2024/01/19 03:45:17;;;;;;;4.45;0.65;;;-0.10;99.90;;;;;;5073040;28;20131;-74
2024/01/19 03:47:44;;;;;;;6.32;0.80;;;1.00;99.90;;;;;;5066309;28;20091;-76
2024/01/19 03:50:10;;;;;;;3.60;1.08;;;0.00;99.90;;;;;;5051477;28;20562;-75
2024/01/19 03:52:37;;;;;;;2.90;0.70;;;0.00;99.90;;;;;;5052819;28;20094;-78
2024/01/19 03:55:06;;;;;;;6.25;0.85;;;0.10;99.90;;;;;;5069487;28;20456;-75
2024/01/19 03:57:31;;;;;;;5.60;1.10;;;0.10;99.90;;;;;;5064122;28;20389;-74
2024/01/19 03:59:57;;;;;;;4.70;1.67;;;0.20;99.90;;;;;;5055689;28;20054;-74
2024/01/19 04:02:23;;;;;;;6.20;1.13;;;0.20;99.90;;;;;;5061534;28;20120;-76
2024/01/19 04:04:48;;;;;;;6.63;0.63;;;0.50;99.90;;;;;;5058136;28;20231;-75
2024/01/19 04:07:14;;;;;;;4.85;1.10;;;0.30;99.90;;;;;;5051094;28;20377;-74
2024/01/19 04:09:40;;;;;;;5.53;1.02;;;0.40;99.90;;;;;;5063459;28;20064;-74
2024/01/19 04:12:17;;;;;;;6.22;0.57;;;0.40;99.90;;;;;;5069091;28;20136;-74
2024/01/19 04:14:44;;;;;;;4.45;0.43;;;0.40;99.90;;;;;;5062656;28;20052;-76
2024/01/19 04:17:11;;;;;;;5.63;0.73;;;0.30;99.90;;;;;;5054027;28;20128;-74
2024/01/19 04:19:38;;;;;;;4.70;0.80;;;0.30;99.90;;;;;;5067767;28;20060;-74
2024/01/19 04:22:04;;;;;;;3.53;0.73;;;0.30;99.90;;;;;;5066985;28;20064;-76
2024/01/19 04:24:30;;;;;;;5.28;0.60;;;0.20;99.90;;;;;;5062993;28;20049;-75
2024/01/19 04:26:56;;;;;;;2.47;0.80;;;0.20;99.90;;;;;;5059612;28;20040;-74
2024/01/19 04:29:22;;;;;;;4.68;0.60;;;0.10;99.90;;;;;;5057130;28;20532;-74
2024/01/19 04:31:48;;;;;;;5.30;0.50;;;0.00;99.90;;;;;;5060081;28;20041;-75
2024/01/19 04:34:13;;;;;;;5.82;0.80;;;0.00;99.90;;;;;;5062169;28;20470;-77
2024/01/19 04:36:39;;;;;;;4.18;0.85;;;0.00;99.90;;;;;;5050792;28;20045;-75
2024/01/19 04:39:05;;;;;;;7.07;0.70;;;0.00;99.90;;;;;;5067530;28;20384;-74
2024/01/19 04:41:32;;;;;;;3.05;0.77;;;-0.10;99.90;;;;;;5066212;28;20037;-75
2024/01/19 04:43:57;;;;;;;6.80;0.80;;;-0.10;99.90;;;;;;5069472;28;20072;-75
2024/01/19 04:46:23;;;;;;;3.33;0.80;;;0.30;99.90;;;;;;5068066;28;20178;-74
2024/01/19 04:48:49;;;;;;;4.40;1.13;;;0.00;99.90;;;;;;5048922;28;20059;-74
2024/01/19 04:51:15;;;;;;;8.40;0.95;;;-0.20;99.90;;;;;;5066102;28;20040;-74
2024/01/19 04:53:40;;;;;;;5.13;1.10;;;-0.20;99.90;;;;;;5055721;28;20139;-74
2024/01/19 04:56:06;;;;;;;9.82;0.75;;;-0.20;99.90;;;;;;5068165;28;20044;-74
2024/01/19 04:58:34;;;;;;;5.07;0.73;;;0.40;99.90;;;;;;5068562;28;20041;-74
2024/01/19 05:01:01;;;;;;;4.72;0.85;;;-0.30;99.90;;;;;;5070772;28;20063;-74
2024/01/19 05:03:26;;;;;;;3.65;0.80;;;-0.40;99.90;;;;;;5052715;28;20395;-74
2024/01/19 05:05:52;;;;;;;7.53;0.93;;;-0.40;99.90;;;;;;5050505;28;20132;-74
2024/01/19 05:08:18;;;;;;;3.05;0.52;;;-0.40;99.90;;;;;;5060601;28;20052;-75
2024/01/19 05:10:43;;;;;;;3.08;0.63;;;-0.20;99.90;;;;;;5068211;28;20388;-77
2024/01/19 05:13:09;;;;;;;5.55;0.68;;;-0.50;99.90;;;;;;5056817;28;20122;-74
2024/01/19 05:15:35;;;;;;;5.95;0.75;;;-0.40;99.90;;;;;;5066719;28;20052;-74
2024/01/19 05:18:02;;;;;;;5.70;0.93;;;-0.50;99.90;;;;;;5059583;28;20047;-74
2024/01/19 05:20:28;;;;;;;3.90;0.68;;;-0.50;99.90;;;;;;5075526;28;20045;-74
2024/01/19 05:22:54;;;;;;;3.13;0.50;;;-0.50;99.90;;;;;;5062924;28;20550;-74
2024/01/19 05:25:20;;;;;;;5.22;0.80;;;-0.50;99.90;;;;;;5072595;28;20120;-74
2024/01/19 05:27:53;;;;;;;7.25;1.00;;;-0.60;99.90;;;;;;5064713;28;20044;-74
2024/01/19 05:30:25;;;;;;;5.30;0.70;;;-0.60;99.90;;;;;;5063446;28;20052;-75
2024/01/19 05:32:51;;;;;;;6.25;0.90;;;-0.50;99.90;;;;;;5061765;28;20558;-74
2024/01/19 05:35:17;;;;;;;7.22;1.10;;;-0.60;99.90;;;;;;5053557;28;20176;-74
2024/01/19 05:37:42;;;;;;;3.88;1.00;;;-0.60;99.90;;;;;;5055686;28;20120;-74
2024/01/19 05:40:08;;;;;;;5.72;0.75;;;0.20;99.90;;;;;;5060569;28;20052;-75
2024/01/19 05:42:34;;;;;;;4.85;0.80;;;-0.60;99.90;;;;;;5054571;28;20048;-74
2024/01/19 05:45:00;;;;;;;5.65;0.80;;;-0.70;99.90;;;;;;5058001;28;20048;-75
2024/01/19 05:47:25;;;;;;;6.43;0.70;;;-0.60;99.90;;;;;;5064112;28;20126;-74
2024/01/19 05:49:51;;;;;;;4.43;1.05;;;-0.40;99.90;;;;;;5061173;28;20041;-73
2024/01/19 05:52:18;;;;;;;10.95;1.10;;;-0.60;99.90;;;;;;5065428;28;20108;-74
2024/01/19 05:54:44;;;;;;;11.95;2.28;;;-0.50;99.90;;;;;;5063358;28;20530;-73
2024/01/19 05:57:10;;;;;;;7.80;1.15;;;-0.50;99.90;;;;;;5065018;28;20061;-74
2024/01/19 05:59:38;;;;;;;7.70;1.13;;;-0.50;99.90;;;;;;5069444;28;20365;-75
2024/01/19 06:02:04;;;;;;;8.75;2.00;;;-0.40;99.90;;;;;;5068057;28;20063;-74
2024/01/19 06:04:33;;;;;;;3.03;0.63;;;-0.60;99.90;;;;;;5060807;28;20052;-75
2024/01/19 06:06:59;;;;;;;4.20;0.80;;;-0.60;99.90;;;;;;5061540;28;20416;-75
2024/01/19 06:09:25;;;;;;;8.60;0.73;;;0.00;99.90;;;;;;5060990;28;20033;-74
2024/01/19 06:11:51;;;;;;;13.68;1.48;;;0.10;99.90;;;;;;5071683;28;20393;-74
2024/01/19 06:14:16;;;;;;;4.53;0.73;;;-0.30;99.90;;;;;;5064440;28;20052;-73
2024/01/19 06:16:42;;;;;;;7.10;1.05;;;-0.50;99.90;;;;;;5073368;28;20059;-73
2024/01/19 06:19:07;;;;;;;12.18;2.03;;;-0.70;99.90;;;;;;5068459;28;20048;-75
2024/01/19 06:21:33;;;;;;;4.35;0.80;;;-0.70;99.90;;;;;;5045318;28;20041;-75
2024/01/19 06:23:59;;;;;;;5.32;0.90;;;-0.70;99.90;;;;;;5062231;28;20107;-74
2024/01/19 06:26:25;;;;;;;6.70;0.90;;;-0.40;99.90;;;;;;5058794;28;20101;-74
2024/01/19 06:28:50;;;;;;;3.90;0.63;;;-0.60;99.90;;;;;;5054987;28;20492;-74
2024/01/19 06:31:16;;;;;;;7.20;1.48;;;-0.50;99.90;;;;;;5069486;28;20416;-74
2024/01/19 06:33:42;;;;;;;7.10;1.00;;;-0.10;99.90;;;;;;5036083;28;20056;-73
2024/01/19 06:36:11;;;;;;;5.50;1.20;;;-0.50;99.90;;;;;;5053197;28;20110;-74
2024/01/19 06:38:40;;;;;;;5.50;1.23;;;-0.40;99.90;;;;;;5060641;28;20044;-75
2024/01/19 06:41:05;;;;;;;6.68;1.30;;;0.20;99.90;;;;;;5054776;28;20044;-73
2024/01/19 06:43:31;;;;;;;12.00;1.48;;;-0.40;99.90;;;;;;5046705;28;20036;-73
2024/01/19 06:45:57;;;;;;;12.70;1.63;;;0.00;99.90;;;;;;5050320;28;20040;-73
2024/01/19 06:48:23;;;;;;;6.28;1.13;;;-0.30;99.90;;;;;;5072081;28;20393;-74
2024/01/19 06:50:50;;;;;;;6.43;1.60;;;-0.40;99.90;;;;;;5068117;28;20082;-72
2024/01/19 06:53:16;;;;;;;5.88;1.38;;;-0.40;99.90;;;;;;5051785;28;20048;-74
2024/01/19 06:55:41;;;;;;;6.70;1.63;;;-0.40;99.90;;;;;;5035390;28;20199;-73
2024/01/19 06:58:07;;;;;;;5.97;0.90;;;-0.40;99.90;;;;;;5056614;28;20798;-73
2024/01/19 07:00:32;;;;;;;5.28;1.42;;;-0.50;99.90;;;;;;5058505;28;20044;-72
2024/01/19 07:02:59;;;;;;;4.20;0.90;;;0.00;99.90;;;;;;5055114;28;20044;-73
2024/01/19 07:05:25;;;;;;;5.85;1.17;;;-0.50;99.90;;;;;;5052349;28;20049;-73
2024/01/19 07:07:51;;;;;;;6.50;1.10;;;-0.60;99.90;;;;;;5069971;28;20497;-72
2024/01/19 07:10:18;;;;;;;6.20;1.83;;;-0.60;99.90;;;;;;5066632;28;20183;-72
2024/01/19 07:12:44;;;;;;;6.03;1.15;;;-0.60;99.90;;;;;;5064634;28;20520;-75
2024/01/19 07:15:10;;;;;;;4.57;0.93;;;-0.60;99.90;;;;;;5055717;28;20052;-74
2024/01/19 07:17:35;;;;;;;5.80;1.55;;;0.20;99.90;;;;;;5052082;28;20131;-73
2024/01/19 07:20:03;;;;;;;7.15;1.13;;;-0.70;99.90;;;;;;5052095;28;20735;-74
2024/01/19 07:22:29;;;;;;;7.18;0.93;;;-0.70;99.90;;;;;;5051994;28;20068;-77
2024/01/19 07:24:57;;;;;;;4.85;1.00;;;-0.70;99.90;;;;;;5066874;28;20051;-73
2024/01/19 07:27:23;;;;;;;7.15;1.45;;;-0.10;99.90;;;;;;5063582;28;20048;-74
2024/01/19 07:29:49;;;;;;;16.42;3.00;;;-0.70;99.90;;;;;;5044123;28;20049;-74
2024/01/19 07:32:15;;;;;;;4.53;1.10;;;-0.70;99.90;;;;;;5066237;28;20045;-74
2024/01/19 07:34:41;;;;;;;8.38;1.33;;;-1.00;99.90;;;;;;5071906;28;20052;-74
2024/01/19 07:37:06;;;;;;;6.13;1.33;;;-0.50;99.90;;;;;;5059543;28;20055;-73
2024/01/19 07:39:32;;;;;;;6.28;1.60;;;-0.60;99.90;;;;;;5051911;28;20037;-73
2024/01/19 07:41:57;;;;;;;15.05;1.42;;;-0.70;99.90;;;;;;5052401;28;20043;-73
2024/01/19 07:44:23;;;;;;;8.15;1.33;;;-0.50;99.90;;;;;;5052013;28;20673;-75
2024/01/19 07:46:50;;;;;;;14.15;1.98;;;-0.60;99.90;;;;;;5052550;28;20094;-76
2024/01/19 07:49:20;;;;;;;13.65;1.83;;;-0.60;99.90;;;;;;5053623;28;20040;-73
2024/01/19 07:51:48;;;;;;;11.68;1.70;;;-0.60;99.90;;;;;;5065907;28;20452;-74
2024/01/19 07:54:14;;;;;;;8.77;1.20;;;-0.50;99.90;;;;;;5055989;28;20089;-75
2024/01/19 07:56:40;;;;;;;10.68;1.38;;;0.20;99.90;;;;;;5060736;28;20048;-76
2024/01/19 07:59:07;;;;;;;13.25;2.38;;;-0.50;99.90;;;;;;5065969;28;20105;-74
2024/01/19 08:01:32;;;;;;;8.60;1.48;;;-0.50;99.90;;;;;;5057503;28;20131;-78
2024/01/19 08:03:58;;;;;;;13.90;2.03;;;-0.40;99.90;;;;;;5053859;28;20136;-80
2024/01/19 08:06:26;;;;;;;8.45;1.90;;;-0.40;99.90;;;;;;5051919;28;20080;-80
2024/01/19 08:08:52;;;;;;;12.20;1.60;;;-0.40;99.90;;;;;;5054620;28;20083;-80
2024/01/19 08:11:18;;;;;;;5.25;1.40;;;-0.30;99.90;;;;;;5034508;28;20084;-80
2024/01/19 08:13:43;;;;;;;12.48;2.45;;;-0.40;99.90;;;;;;5051409;28;20095;-78
2024/01/19 08:16:09;;;;;;;8.57;1.08;;;0.00;99.90;;;;;;5051403;28;20084;-80
2024/01/19 08:18:35;;;;;;;8.32;1.48;;;-0.30;99.90;;;;;;5057566;28;20440;-80
2024/01/19 08:21:03;;;;;;;8.68;1.83;;;-0.20;99.90;;;;;;5057921;28;20530;-80
2024/01/19 08:23:33;;;;;;;10.93;1.40;;;-0.10;99.90;;;;;;5051544;28;20056;-80
2024/01/19 08:25:58;;;;;;;6.45;1.35;;;0.10;99.90;;;;;;5064213;28;20068;-80
2024/01/19 08:28:24;;;;;;;10.93;1.35;;;-0.20;99.90;;;;;;5063601;28;20048;-80
2024/01/19 08:30:50;;;;;;;5.75;1.17;;;-0.20;99.90;;;;;;5063957;28;20044;-80
2024/01/19 08:33:15;;;;;;;10.43;1.40;;;-0.20;99.90;;;;;;5064386;28;20075;-81
2024/01/19 08:35:42;;;;;;;7.95;1.25;;;-0.20;99.90;;;;;;5064124;28;20124;-80
2024/01/19 08:38:07;;;;;;;9.38;1.67;;;0.70;99.90;;;;;;5067146;28;20071;-81
2024/01/19 08:40:33;;;;;;;5.85;1.38;;;-0.20;99.90;;;;;;5062796;28;20057;-80
2024/01/19 08:42:59;;;;;;;5.95;0.98;;;0.80;99.90;;;;;;5051367;28;20396;-80
2024/01/19 08:45:28;;;;;;;5.65;1.23;;;0.60;99.90;;;;;;5051732;28;20079;-79
2024/01/19 08:47:56;;;;;;;6.95;1.25;;;-0.20;99.90;;;;;;5059355;28;20174;-80
2024/01/19 08:50:22;;;;;;;4.70;1.25;;;-0.20;99.90;;;;;;5052125;28;20041;-80
2024/01/19 08:52:47;;;;;;;12.23;1.50;;;0.60;99.90;;;;;;5049649;28;20045;-80
2024/01/19 08:55:13;;;;;;;7.85;1.30;;;0.40;99.90;;;;;;5049942;28;20053;-80
2024/01/19 08:57:39;;;;;;;4.47;1.13;;;-0.20;99.90;;;;;;5051965;28;20052;-80
2024/01/19 09:00:07;;;;;;;5.85;1.10;;;-0.20;99.90;;;;;;5054370;28;20045;-80
2024/01/19 09:02:33;;;;;;;7.97;1.33;;;-0.20;99.90;;;;;;5054946;28;20053;-80
2024/01/19 09:04:58;;;;;;;5.00;2.33;;;-0.20;99.90;;;;;;5051693;28;20045;-80
2024/01/19 09:07:24;;;;;;;12.60;1.50;;;-0.20;99.90;;;;;;5056789;28;20083;-80
2024/01/19 09:09:50;;;;;;;10.85;1.35;;;0.50;99.90;;;;;;5057333;28;20116;-80
2024/01/19 09:12:15;;;;;;;8.43;1.88;;;-0.10;99.90;;;;;;5051319;28;20047;-82
2024/01/19 09:14:41;;;;;;;7.85;1.48;;;-0.10;99.90;;;;;;5065990;28;20167;-79
2024/01/19 09:17:06;;;;;;;7.72;1.60;;;-0.10;99.90;;;;;;5051140;28;20053;-79
2024/01/19 09:19:32;;;;;;;15.07;1.88;;;0.00;99.90;;;;;;5062320;28;20036;-79
2024/01/19 09:21:58;;;;;;;9.13;1.20;;;0.40;99.90;;;;;;5036659;28;20412;-79
2024/01/19 09:24:24;;;;;;;6.30;1.10;;;0.60;99.90;;;;;;5051040;28;20052;-79
2024/01/19 09:26:50;;;;;;;7.20;1.60;;;0.00;99.90;;;;;;5058895;28;20467;-79
2024/01/19 09:29:16;;;;;;;8.52;1.40;;;0.00;99.90;;;;;;5058189;28;20124;-79
2024/01/19 09:31:43;;;;;;;6.03;1.33;;;0.00;99.90;;;;;;5058284;28;20048;-79
2024/01/19 09:34:08;;;;;;;8.48;1.42;;;0.40;99.90;;;;;;5049786;28;20048;-79
2024/01/19 09:36:37;;;;;;;10.15;1.63;;;0.00;99.90;;;;;;5064348;28;20044;-79
2024/01/19 09:39:03;;;;;;;11.00;1.38;;;0.30;99.90;;;;;;5063952;28;20483;-79
2024/01/19 09:41:38;;;;;;;7.03;1.80;;;0.10;99.90;;;;;;5066516;28;20510;-79
2024/01/19 09:44:08;;;;;;;6.75;1.08;;;0.10;99.90;;;;;;5069914;28;20123;-79
2024/01/19 09:46:37;;;;;;;7.90;1.30;;;0.20;99.90;;;;;;5064076;28;20045;-79
2024/01/19 09:49:31;;;;;;;10.18;2.05;;;0.40;99.90;;;;;;5048568;28;20045;-79
2024/01/19 09:52:26;;;;;;;12.15;2.28;;;0.10;99.90;;;;;;5059691;28;20051;-80
2024/01/19 09:54:54;;;;;;;7.97;1.40;;;0.10;99.90;;;;;;5063042;28;20049;-80
2024/01/19 09:57:20;;;;;;;8.43;1.40;;;0.10;99.90;;;;;;5038403;28;20088;-79
2024/01/19 09:59:45;;;;;;;5.68;1.30;;;0.50;99.90;;;;;;5054912;28;20068;-79
2024/01/19 10:02:13;;;;;;;6.97;1.60;;;0.20;99.90;;;;;;5069227;28;20037;-79
2024/01/19 10:04:39;;;;;;;10.95;2.00;;;0.80;99.90;;;;;;5071321;28;20052;-79
2024/01/19 10:07:06;;;;;;;10.10;1.52;;;1.10;99.90;;;;;;5063090;28;20041;-79
2024/01/19 10:09:32;;;;;;;12.75;1.77;;;0.30;99.90;;;;;;5068716;28;20596;-79
2024/01/19 10:11:58;;;;;;;9.05;1.30;;;0.40;99.90;;;;;;5072524;28;20053;-79
2024/01/19 10:14:25;;;;;;;13.60;1.30;;;0.40;99.90;;;;;;5073304;28;20051;-79
2024/01/19 10:16:51;;;;;;;10.27;1.30;;;0.50;99.90;;;;;;5072561;28;20496;-79
2024/01/19 10:19:21;;;;;;;10.80;1.33;;;0.50;99.90;;;;;;5052763;28;20056;-79
2024/01/19 10:21:47;;;;;;;5.60;1.33;;;1.00;99.90;;;;;;5057695;28;20056;-78
2024/01/19 10:24:14;;;;;;;6.88;1.40;;;0.60;99.90;;;;;;5063819;28;20048;-79
2024/01/19 10:26:55;;;;;;;11.25;1.52;;;0.70;99.90;;;;;;5074514;28;20059;-78
2024/01/19 10:29:22;;;;;;;9.07;1.48;;;0.70;99.90;;;;;;5056479;28;20071;-79
2024/01/19 10:31:49;;;;;;;7.07;1.20;;;0.80;99.90;;;;;;5068878;28;20126;-78
2024/01/19 10:34:22;;;;;;;7.35;1.30;;;0.80;99.90;;;;;;5054170;28;20128;-79
2024/01/19 10:36:49;;;;;;;6.13;1.27;;;1.40;99.90;;;;;;5035824;28;20222;-79
2024/01/19 10:39:23;;;;;;;13.10;1.80;;;1.00;99.90;;;;;;5053127;28;20480;-79
2024/01/19 10:41:51;;;;;;;7.35;1.63;;;1.00;99.90;;;;;;5036474;28;20487;-79
2024/01/19 10:44:20;;;;;;;9.63;1.48;;;1.10;99.90;;;;;;5052872;28;20064;-79
2024/01/19 10:46:46;;;;;;;8.93;1.38;;;1.20;99.90;;;;;;5061674;28;20400;-78
2024/01/19 10:49:15;;;;;;;5.65;1.27;;;1.20;99.90;;;;;;5053314;28;20060;-78
2024/01/19 10:51:43;;;;;;;8.45;2.08;;;1.30;99.90;;;;;;5053748;28;20052;-78
2024/01/19 10:54:15;;;;;;;9.52;1.92;;;1.30;99.90;;;;;;5052368;28;20398;-78
2024/01/19 10:56:42;;;;;;;7.65;1.40;;;1.40;99.90;;;;;;5055736;28;20040;-78
2024/01/19 10:59:12;;;;;;;6.88;2.15;;;1.40;99.90;;;;;;5057273;28;20178;-78
2024/01/19 11:01:38;;;;;;;13.25;1.48;;;1.60;99.90;;;;;;5058668;28;20484;-77
2024/01/19 11:04:08;;;;;;;8.65;1.38;;;1.60;99.90;;;;;;5066390;28;20049;-77
2024/01/19 11:06:36;;;;;;;10.18;1.80;;;1.60;99.90;;;;;;5053256;28;20037;-77
2024/01/19 11:09:06;;;;;;;12.52;2.42;;;1.70;99.90;;;;;;5052273;28;20049;-77
2024/01/19 11:11:38;;;;;;;8.13;1.58;;;1.70;99.90;;;;;;5060358;28;20687;-77
2024/01/19 11:14:07;;;;;;;8.68;1.33;;;1.80;99.90;;;;;;5053036;28;20751;-77
2024/01/19 11:16:42;;;;;;;13.38;2.33;;;1.90;99.90;;;;;;5060650;28;20040;-78
2024/01/19 11:19:08;;;;;;;13.57;1.83;;;1.90;99.90;;;;;;5055176;28;20046;-79
2024/01/19 11:21:34;;;;;;;8.95;1.40;;;2.00;99.90;;;;;;5051308;28;20525;-79
2024/01/19 11:24:03;;;;;;;7.30;1.08;;;2.10;99.90;;;;;;5051368;28;20048;-80
2024/01/19 11:26:40;;;;;;;5.63;1.42;;;2.10;99.90;;;;;;5073837;28;20059;-79
2024/01/19 11:29:22;;;;;;;8.02;1.50;;;2.20;99.90;;;;;;5063969;28;20056;-80
2024/01/19 11:31:50;;;;;;;15.73;1.58;;;2.30;99.90;;;;;;5057160;28;20055;-79
2024/01/19 11:34:49;;;;;;;13.65;1.55;;;2.30;99.90;;;;;;5066923;28;20036;-79
2024/01/19 11:37:44;;;;;;;7.40;1.10;;;2.40;99.90;;;;;;5051631;28;20037;-80
2024/01/19 11:40:32;;;;;;;10.30;1.50;;;2.50;99.90;;;;;;5036571;28;20056;-79
2024/01/19 11:42:57;;;;;;;8.00;1.42;;;2.60;99.90;;;;;;5067270;28;20048;-79
2024/01/19 11:45:40;;;;;;;9.75;1.40;;;3.40;99.90;;;;;;5073724;28;20041;-79
2024/01/19 11:48:07;;;;;;;6.13;1.33;;;2.80;99.90;;;;;;5069970;28;20551;-80
2024/01/19 11:50:43;;;;;;;9.93;1.70;;;2.90;99.90;;;;;;5054688;28;20087;-78
2024/01/19 11:53:10;;;;;;;14.90;1.90;;;3.00;99.90;;;;;;5052545;28;20045;-78
2024/01/19 11:55:41;;;;;;;15.30;2.60;;;3.10;99.90;;;;;;5057153;28;20064;-79
2024/01/19 11:58:30;;;;;;;14.23;2.83;;;3.10;99.90;;;;;;5051598;28;20269;-80
2024/01/19 12:00:58;;;;;;;16.33;4.57;;;3.20;99.90;;;;;;5051124;28;20052;-79
2024/01/19 12:03:24;;;;;;;9.35;1.98;;;3.30;99.90;;;;;;5060041;28;20049;-80
2024/01/19 12:05:53;;;;;;;8.60;2.42;;;3.40;99.90;;;;;;5055319;28;20050;-80
2024/01/19 12:08:18;;;;;;;30.55;10.73;;;3.40;99.90;;;;;;5064021;28;20051;-79
2024/01/19 12:10:44;;;;;;;12.20;3.38;;;3.40;99.90;;;;;;5061762;28;20049;-79
2024/01/19 12:13:11;;;;;;;6.25;2.53;;;3.50;99.90;;;;;;5064367;28;20086;-80
2024/01/19 12:15:39;;;;;;;12.85;2.17;;;3.50;99.90;;;;;;5072044;28;20065;-80
2024/01/19 12:18:05;;;;;;;13.63;2.50;;;3.60;99.90;;;;;;5066479;28;20052;-80
2024/01/19 12:20:31;;;;;;;9.85;2.33;;;3.60;99.90;;;;;;5051277;28;20040;-79
2024/01/19 12:22:57;;;;;;;11.13;1.83;;;3.70;99.90;;;;;;5050465;28;20057;-80
2024/01/19 12:25:24;;;;;;;12.95;1.90;;;3.70;99.90;;;;;;5050514;28;20048;-80
2024/01/19 12:28:05;;;;;;;12.05;2.08;;;3.70;99.90;;;;;;5051398;28;20087;-81
2024/01/19 12:30:32;;;;;;;17.65;2.38;;;3.70;99.90;;;;;;5056928;28;20393;-80
2024/01/19 12:33:11;;;;;;;7.00;3.03;;;3.70;99.90;;;;;;5033488;28;20500;-80
2024/01/19 12:35:41;;;;;;;11.02;2.28;;;3.90;99.90;;;;;;5050715;28;21588;-81
2024/01/19 12:38:07;;;;;;;13.02;2.83;;;3.70;99.90;;;;;;5052182;28;20094;-80
2024/01/19 12:40:34;;;;;;;10.27;2.33;;;3.70;99.90;;;;;;5066512;28;20066;-81
2024/01/19 12:43:04;;;;;;;11.00;3.40;;;4.10;99.90;;;;;;5052533;28;20566;-82
2024/01/19 12:45:29;;;;;;;17.00;4.22;;;3.70;99.90;;;;;;5050752;28;20041;-80
2024/01/19 12:47:55;;;;;;;6.28;1.33;;;3.70;99.90;;;;;;5033504;28;20045;-77
2024/01/19 12:50:21;;;;;;;10.07;1.75;;;3.80;99.90;;;;;;5052144;28;20036;-77